createdAt,value
2019-05-23T09:29:47.769Z,100749.61
2019-05-23T09:34:49.847Z,100755.67
2019-05-23T09:39:52.037Z,100750.27
2019-05-23T09:44:54.217Z,100743.22
2019-05-23T09:49:56.489Z,100740.17
2019-05-23T09:54:58.518Z,100734.22
2019-05-23T10:00:00.549Z,100740.92
2019-05-23T10:05:07.379Z,100745.90
2019-05-23T10:10:10.909Z,100736.10
2019-05-23T10:15:25.820Z,100748.34
2019-05-23T10:20:30.977Z,100749.06
2019-05-23T10:25:33.924Z,100742.05
2019-05-23T10:30:37.104Z,100738.31
2019-05-23T10:35:39.302Z,100735.06
2019-05-23T10:40:41.844Z,100726.59
2019-05-23T10:45:44.292Z,100738.70
2019-05-23T10:50:46.829Z,100720.51
2019-05-23T10:55:48.893Z,100721.89
2019-05-23T11:00:51.932Z,100725.45
2019-05-23T11:05:54.150Z,100710.97
2019-05-23T11:10:56.501Z,100713.16
2019-05-23T11:15:58.450Z,100711.61
2019-05-23T11:21:00.394Z,100700.92
2019-05-23T11:26:03.512Z,100701.46
2019-05-23T11:31:07.914Z,100696.97
2019-05-23T11:36:10.614Z,100691.52
2019-05-23T11:41:12.620Z,100688.08
2019-05-23T11:46:26.675Z,100691.74
2019-05-23T11:51:29.005Z,100679.38
2019-05-23T11:56:31.871Z,100674.86
2019-05-23T12:01:49.206Z,100675.08
2019-05-23T12:07:05.510Z,100669.21
2019-05-23T12:12:07.699Z,100669.09
2019-05-23T12:17:10.873Z,100658.89
2019-05-23T12:22:13.972Z,100657.91
2019-05-23T12:27:16.219Z,100654.23
2019-05-23T12:32:18.835Z,100654.85
2019-05-23T12:37:22.462Z,100645.11
2019-05-23T12:42:24.506Z,100632.70
2019-05-23T12:47:45.976Z,100622.41
2019-05-23T12:52:48.236Z,100623.84
2019-05-23T12:57:50.501Z,100623.88
2019-05-23T13:02:53.471Z,100620.92
2019-05-23T13:07:55.781Z,100612.97
2019-05-23T13:12:57.890Z,100607.34
2019-05-23T13:18:00.319Z,100605.77
2019-05-23T13:23:02.501Z,100597.98
2019-05-23T13:28:04.775Z,100591.48
2019-05-23T13:33:06.914Z,100599.30
2019-05-23T13:38:09.117Z,100589.82
